createdAt,value
2023-02-19T00:00:41.420Z,95976.75
2023-02-19T00:01:46.197Z,95838.13
2023-02-19T00:02:48.359Z,95931.06
2023-02-19T00:03:53.051Z,95936.94
2023-02-19T00:04:54.994Z,95850.69
2023-02-19T00:05:57.545Z,95926.91
2023-02-19T00:06:59.657Z,95826.56
2023-02-19T00:08:01.482Z,95931.47
2023-02-19T00:09:03.773Z,95938.06
2023-02-19T00:10:05.720Z,95913.75
2023-02-19T00:11:11.539Z,95942.00
2023-02-19T00:12:14.535Z,95931.66
2023-02-19T00:13:16.384Z,95918.56
2023-02-19T00:14:22.059Z,95691.56
2023-02-19T00:15:24.718Z,95979.63
2023-02-19T00:16:30.272Z,95944.06
2023-02-19T00:17:32.369Z,95931.47
2023-02-19T00:18:34.710Z,95940.13
2023-02-19T00:19:36.590Z,95943.50
2023-02-19T00:20:38.450Z,95923.59
2023-02-19T00:21:40.304Z,95892.22
2023-02-19T00:22:42.096Z,95917.72
2023-02-19T00:23:44.055Z,95935.78
2023-02-19T00:24:48.978Z,95941.84
2023-02-19T00:25:51.129Z,95826.97
2023-02-19T00:26:52.735Z,95897.72
2023-02-19T00:27:54.902Z,95930.00
2023-02-19T00:28:58.640Z,95947.16
2023-02-19T00:30:00.684Z,95874.34
2023-02-19T00:31:16.040Z,95932.84
2023-02-19T00:32:21.158Z,95901.53
2023-02-19T00:33:23.767Z,95869.56
2023-02-19T00:34:25.829Z,95903.53
2023-02-19T00:35:27.622Z,95809.34
2023-02-19T00:36:32.795Z,95922.44
2023-02-19T00:37:35.060Z,95924.91
2023-02-19T00:38:41.204Z,95825.63
2023-02-19T00:39:43.142Z,95917.00
2023-02-19T00:40:44.784Z,95910.44
2023-02-19T00:41:47.433Z,95842.97
2023-02-19T00:42:49.452Z,95883.25
2023-02-19T00:43:59.678Z,95856.31
2023-02-19T00:45:03.166Z,95900.59
2023-02-19T00:46:05.155Z,95896.66
2023-02-19T00:47:06.973Z,95908.06
2023-02-19T00:48:09.740Z,95855.69
2023-02-19T00:49:23.025Z,95521.94
2023-02-19T00:50:27.902Z,95887.66
2023-02-19T00:51:32.408Z,95902.31
2023-02-19T00:52:38.740Z,95822.16
2023-02-19T00:53:41.813Z,95884.88
2023-02-19T00:54:47.326Z,95868.00
2023-02-19T00:55:48.999Z,95880.09
2023-02-19T00:56:51.241Z,95912.44
2023-02-19T00:57:52.954Z,95867.47
2023-02-19T00:58:55.329Z,95908.28
2023-02-19T00:59:57.467Z,95890.53
2023-02-19T01:00:59.454Z,95906.22
2023-02-19T01:02:01.306Z,95892.53
2023-02-19T01:03:03.100Z,95911.94
2023-02-19T01:04:06.727Z,95792.84
2023-02-19T01:05:08.934Z,95897.63
2023-02-19T01:06:12.166Z,95752.66
2023-02-19T01:07:13.933Z,95919.88
2023-02-19T01:08:15.971Z,95890.41
2023-02-19T01:09:17.931Z,95886.41
2023-02-19T01:10:19.962Z,95843.78
2023-02-19T01:11:21.917Z,95894.75
2023-02-19T01:12:23.860Z,95896.75
2023-02-19T01:13:26.250Z,95850.56
2023-02-19T01:14:27.975Z,95879.94
2023-02-19T01:15:29.681Z,95893.03
2023-02-19T01:16:31.543Z,95897.34
2023-02-19T01:17:35.940Z,95894.69
2023-02-19T01:18:38.121Z,95892.69
2023-02-19T01:19:40.272Z,95877.72
2023-02-19T01:20:44.116Z,95898.63
2023-02-19T01:21:45.798Z,95823.34
2023-02-19T01:22:47.507Z,95890.56
2023-02-19T01:23:50.987Z,95893.41
2023-02-19T01:24:52.762Z,95883.81
2023-02-19T01:25:54.532Z,95909.31
2023-02-19T01:26:56.458Z,95902.06
2023-02-19T01:27:58.350Z,95922.59
2023-02-19T01:29:01.770Z,95893.53
2023-02-19T01:30:03.975Z,95915.13
2023-02-19T01:31:07.799Z,95750.19
2023-02-19T01:32:09.969Z,95907.66
2023-02-19T01:33:11.841Z,95903.56
2023-02-19T01:34:13.485Z,95816.88
2023-02-19T01:35:15.312Z,95901.34
2023-02-19T01:36:17.403Z,95917.22
2023-02-19T01:37:19.251Z,95815.44
2023-02-19T01:38:21.093Z,95913.69
2023-02-19T01:39:23.037Z,95949.31
2023-02-19T01:40:25.442Z,95928.06
2023-02-19T01:41:27.222Z,95928.06
2023-02-19T01:42:28.878Z,95929.22
2023-02-19T01:43:33.092Z,95916.47
2023-02-19T01:44:34.723Z,95939.50
2023-02-19T01:45:39.754Z,95926.84
2023-02-19T01:46:46.142Z,95917.69
2023-02-19T01:47:53.787Z,95926.81
2023-02-19T01:48:59.220Z,95924.91
2023-02-19T01:50:01.074Z,95844.69
2023-02-19T01:51:09.831Z,95919.69
2023-02-19T01:52:21.960Z,95815.28
2023-02-19T01:53:27.803Z,95912.44
2023-02-19T01:54:33.425Z,95770.41
2023-02-19T01:55:35.913Z,95918.78
2023-02-19T01:56:41.252Z,95929.66
2023-02-19T01:57:46.916Z,95921.34
2023-02-19T01:58:48.743Z,95947.47
2023-02-19T01:59:54.625Z,95944.50
2023-02-19T02:00:56.682Z,95895.59
2023-02-19T02:02:00.622Z,95938.78
2023-02-19T02:03:03.022Z,95934.56
2023-02-19T02:04:06.692Z,95936.38
2023-02-19T02:05:24.032Z,95924.66
2023-02-19T02:06:34.231Z,95905.66
2023-02-19T02:07:35.943Z,95922.00
2023-02-19T02:08:38.126Z,95942.03
2023-02-19T02:09:40.075Z,95923.69
2023-02-19T02:10:43.245Z,95952.47
2023-02-19T02:11:49.596Z,95958.16
2023-02-19T02:12:57.011Z,95939.78
2023-02-19T02:13:59.882Z,95932.25
2023-02-19T02:15:01.721Z,95928.94
2023-02-19T02:18:18.605Z,95937.88
2023-02-19T02:19:36.238Z,95787.00
2023-02-19T02:20:46.839Z,95956.41
2023-02-19T02:22:03.772Z,95905.38
2023-02-19T02:23:20.973Z,95910.28
2023-02-19T02:24:49.368Z,95936.16
2023-02-19T02:26:16.726Z,95930.66
2023-02-19T02:27:49.294Z,95936.53
2023-02-19T02:29:11.914Z,95932.72
2023-02-19T02:30:25.911Z,95948.97
2023-02-19T02:31:42.952Z,95964.75
2023-02-19T02:33:01.700Z,95957.91
2023-02-19T02:34:30.466Z,95937.22
2023-02-19T02:35:40.711Z,95915.44
2023-02-19T02:36:46.057Z,95935.22
2023-02-19T02:37:49.828Z,95921.44
2023-02-19T02:38:53.058Z,95928.66
2023-02-19T02:39:57.599Z,95914.25
2023-02-19T02:41:00.156Z,95907.13
2023-02-19T02:42:01.901Z,95941.34
2023-02-19T02:43:03.681Z,95933.44
2023-02-19T02:44:05.772Z,95925.09
2023-02-19T02:45:19.835Z,95922.00
2023-02-19T02:46:36.486Z,95934.66
2023-02-19T02:47:42.365Z,95813.09
2023-02-19T02:48:57.537Z,95924.22
2023-02-19T02:50:00.434Z,95949.66
2023-02-19T02:51:14.281Z,95923.03
2023-02-19T02:52:16.051Z,95933.56
2023-02-19T02:53:36.670Z,95936.88
2023-02-19T02:54:38.501Z,95907.88
2023-02-19T02:55:44.334Z,95937.75
2023-02-19T02:56:48.287Z,95818.06
2023-02-19T02:57:50.202Z,95733.19
2023-02-19T02:58:54.058Z,95950.66
2023-02-19T02:59:56.509Z,95941.88
2023-02-19T03:01:06.495Z,95937.97
2023-02-19T03:02:12.158Z,95799.41
2023-02-19T03:03:18.424Z,95926.00
2023-02-19T03:04:31.183Z,95903.63
2023-02-19T03:05:33.445Z,95855.56
2023-02-19T03:06:37.903Z,95925.75
2023-02-19T03:08:00.848Z,95924.06
2023-02-19T03:09:12.897Z,95923.50
2023-02-19T03:10:19.929Z,95915.91
2023-02-19T03:11:21.868Z,95897.69
2023-02-19T03:12:26.043Z,95926.69
2023-02-19T03:13:38.730Z,95932.69
2023-02-19T03:14:54.014Z,95869.75
2023-02-19T03:16:02.582Z,95917.41
2023-02-19T03:17:27.699Z,95937.59
2023-02-19T03:18:33.486Z,95922.06
2023-02-19T03:19:41.869Z,95898.59
2023-02-19T03:20:48.837Z,95927.38
2023-02-19T03:22:18.957Z,95940.25
2023-02-19T03:23:23.470Z,95937.47
2023-02-19T03:24:35.593Z,95942.16
2023-02-19T03:25:39.855Z,95905.84
2023-02-19T03:26:44.164Z,95923.16
2023-02-19T03:27:48.165Z,95761.47
2023-02-19T03:28:52.920Z,95930.19
2023-02-19T03:29:59.150Z,95942.31
2023-02-19T03:31:01.132Z,95959.84
2023-02-19T03:32:19.143Z,95951.19
2023-02-19T03:33:26.591Z,95964.19
2023-02-19T03:34:55.443Z,95964.72
2023-02-19T03:36:02.574Z,95965.19
2023-02-19T03:37:12.312Z,95958.09
2023-02-19T03:38:25.405Z,95848.47
2023-02-19T03:39:27.690Z,95957.13
2023-02-19T03:40:34.458Z,95961.31
2023-02-19T03:41:39.192Z,95970.44
2023-02-19T03:42:50.144Z,95972.53
2023-02-19T03:44:17.126Z,95980.03
2023-02-19T03:45:25.419Z,95981.69
2023-02-19T03:46:46.180Z,95912.88
2023-02-19T03:48:24.852Z,95978.47
2023-02-19T03:49:40.350Z,95632.25
2023-02-19T03:50:48.049Z,95978.34
2023-02-19T03:52:09.886Z,95961.25
2023-02-19T03:53:20.376Z,96010.03
2023-02-19T03:54:42.570Z,95827.06
2023-02-19T03:55:51.358Z,95971.47
2023-02-19T03:57:03.075Z,95940.03
2023-02-19T03:58:08.577Z,95875.03
2023-02-19T03:59:17.503Z,95981.56
2023-02-19T04:00:26.891Z,95986.34
2023-02-19T04:01:54.997Z,95953.25
2023-02-19T04:02:59.763Z,95992.56
2023-02-19T04:04:01.421Z,95982.22
2023-02-19T04:05:06.879Z,95975.13
2023-02-19T04:06:17.329Z,95976.56
2023-02-19T04:07:19.301Z,95983.69
2023-02-19T04:08:24.621Z,95966.25
2023-02-19T04:09:34.880Z,95983.09
2023-02-19T04:10:38.188Z,95977.56
2023-02-19T04:11:40.178Z,95983.50
2023-02-19T04:12:48.707Z,96006.69
2023-02-19T04:14:13.087Z,95997.34
2023-02-19T04:15:20.569Z,96014.78
2023-02-19T04:16:27.431Z,96000.25
2023-02-19T04:17:35.997Z,96014.38
2023-02-19T04:18:41.368Z,95995.53
2023-02-19T04:19:43.516Z,96003.44
2023-02-19T04:20:48.061Z,95928.97
2023-02-19T04:21:52.192Z,95991.44
2023-02-19T04:22:54.290Z,96002.19
2023-02-19T04:24:00.877Z,95942.34
2023-02-19T04:25:03.227Z,95989.78
2023-02-19T04:26:07.129Z,96006.16
2023-02-19T04:27:10.203Z,95943.50
2023-02-19T04:28:14.614Z,96000.94
2023-02-19T04:29:16.301Z,96002.53
2023-02-19T04:30:18.341Z,95893.06
2023-02-19T04:31:20.157Z,96016.47
2023-02-19T04:32:22.089Z,96009.78
2023-02-19T04:33:23.941Z,96017.50
2023-02-19T04:34:25.918Z,95963.84
2023-02-19T04:35:27.923Z,96015.25
2023-02-19T04:36:31.166Z,96015.00
2023-02-19T04:37:32.823Z,96016.81
2023-02-19T04:38:34.583Z,96022.59
2023-02-19T04:39:36.293Z,95889.13
2023-02-19T04:40:38.024Z,95974.34
2023-02-19T04:41:39.751Z,95976.50
2023-02-19T04:42:41.460Z,95899.97
2023-02-19T04:43:43.305Z,95967.31
2023-02-19T04:44:45.069Z,95949.28
2023-02-19T04:45:46.854Z,95967.41
2023-02-19T04:46:48.751Z,95989.94
2023-02-19T04:47:50.620Z,95962.47
2023-02-19T04:48:52.273Z,96022.56
2023-02-19T04:49:53.950Z,95953.41
2023-02-19T04:50:56.038Z,96041.88
2023-02-19T04:51:57.768Z,95998.94
2023-02-19T04:52:59.436Z,96012.53
2023-02-19T04:54:01.159Z,95875.03
2023-02-19T04:55:03.039Z,96014.00
2023-02-19T04:56:10.148Z,96024.69
2023-02-19T04:57:12.022Z,95984.41
2023-02-19T04:58:14.162Z,95908.00
2023-02-19T04:59:15.905Z,96014.31
2023-02-19T05:00:17.734Z,96017.00
2023-02-19T05:01:19.467Z,96016.56
2023-02-19T05:02:21.198Z,96025.75
2023-02-19T05:03:23.324Z,96013.50
2023-02-19T05:04:25.448Z,95966.19
2023-02-19T05:05:27.529Z,96027.56
2023-02-19T05:06:29.387Z,96029.72
2023-02-19T05:07:31.235Z,96005.34
2023-02-19T05:08:33.103Z,96026.97
2023-02-19T05:09:34.820Z,96028.81
2023-02-19T05:10:36.512Z,96029.91
2023-02-19T05:11:38.201Z,96011.50
2023-02-19T05:12:39.847Z,95888.50
2023-02-19T05:13:41.728Z,96018.28
2023-02-19T05:14:43.638Z,95965.66
2023-02-19T05:16:14.490Z,96015.16
2023-02-19T05:17:16.207Z,96036.03
2023-02-19T05:18:17.891Z,96036.25
2023-02-19T05:19:19.549Z,96031.72
2023-02-19T05:20:21.285Z,96029.03
2023-02-19T05:21:22.915Z,96019.69
2023-02-19T05:22:24.642Z,96036.00
2023-02-19T05:23:28.014Z,95987.69
2023-02-19T05:24:29.872Z,96034.34
2023-02-19T05:25:31.564Z,96033.94
2023-02-19T05:26:33.454Z,96030.84
2023-02-19T05:27:35.386Z,96022.16
2023-02-19T05:28:37.086Z,95998.91
2023-02-19T05:29:38.790Z,95958.81
2023-02-19T05:30:40.504Z,96048.72
2023-02-19T05:31:42.379Z,96036.75
2023-02-19T05:32:44.230Z,96028.41
2023-02-19T05:33:46.048Z,96049.63
2023-02-19T05:34:47.747Z,96037.28
2023-02-19T05:35:52.192Z,96021.38
2023-02-19T05:36:54.497Z,96048.94
2023-02-19T05:37:56.456Z,96046.84
2023-02-19T05:38:58.444Z,96004.22
2023-02-19T05:40:00.276Z,96048.72
2023-02-19T05:41:12.979Z,96047.16
2023-02-19T05:42:15.661Z,96041.59
2023-02-19T05:43:17.762Z,96051.34
2023-02-19T05:44:19.498Z,95909.13
2023-02-19T05:45:21.244Z,96060.47
2023-02-19T05:46:26.522Z,96068.59
2023-02-19T05:47:28.675Z,96069.81
2023-02-19T05:48:30.738Z,96068.72
2023-02-19T05:49:32.410Z,96054.34
2023-02-19T05:50:38.195Z,96069.38
2023-02-19T05:51:41.280Z,96067.31
2023-02-19T05:52:43.116Z,96038.75
2023-02-19T05:53:45.673Z,96071.25
2023-02-19T05:54:47.518Z,96075.09
2023-02-19T05:55:49.594Z,95972.88
2023-02-19T05:56:51.347Z,96021.47
2023-02-19T05:57:53.221Z,96072.81
2023-02-19T05:58:55.695Z,96068.81
2023-02-19T05:59:57.632Z,96050.16
2023-02-19T06:00:59.309Z,96011.16
2023-02-19T06:02:01.076Z,96080.28
2023-02-19T06:03:02.869Z,96076.94
2023-02-19T06:04:04.849Z,96101.75
2023-02-19T06:05:07.199Z,96104.88
2023-02-19T06:06:13.199Z,96093.19
2023-02-19T06:07:15.143Z,96038.16
2023-02-19T06:08:16.954Z,96068.09
2023-02-19T06:09:18.708Z,96087.84
2023-02-19T06:10:20.415Z,95979.44
2023-02-19T06:11:23.448Z,95961.31
2023-02-19T06:12:25.311Z,96102.38
2023-02-19T06:13:27.034Z,96045.38
2023-02-19T06:14:29.164Z,96091.03
2023-02-19T06:15:31.116Z,96080.00
2023-02-19T06:16:33.319Z,96084.78
2023-02-19T06:17:35.206Z,96096.97
2023-02-19T06:18:37.529Z,96100.72
2023-02-19T06:19:39.334Z,96057.59
2023-02-19T06:20:41.005Z,96091.81
2023-02-19T06:21:42.728Z,96085.78
2023-02-19T06:22:44.444Z,95962.59
2023-02-19T06:23:46.750Z,96096.34
2023-02-19T06:24:48.863Z,96082.22
2023-02-19T06:25:50.776Z,96086.78
2023-02-19T06:26:52.734Z,96090.66
2023-02-19T06:27:54.624Z,96025.78
2023-02-19T06:28:56.588Z,96097.13
2023-02-19T06:29:58.446Z,96095.25
2023-02-19T06:31:00.396Z,96087.56
2023-02-19T06:32:02.274Z,96087.16
2023-02-19T06:33:04.094Z,96088.94
2023-02-19T06:34:06.130Z,96079.34
2023-02-19T06:35:08.186Z,96061.47
2023-02-19T06:36:16.387Z,96071.25
2023-02-19T06:37:18.072Z,96081.91
2023-02-19T06:38:21.835Z,96069.28
2023-02-19T06:39:23.530Z,96101.03
2023-02-19T06:40:25.250Z,96093.13
2023-02-19T06:41:27.035Z,96104.84
2023-02-19T06:42:32.245Z,96091.94
2023-02-19T06:43:35.080Z,96079.25
2023-02-19T06:44:37.167Z,96099.47
2023-02-19T06:45:38.954Z,96070.75
2023-02-19T06:46:40.705Z,96115.38
2023-02-19T06:47:42.506Z,96114.53
2023-02-19T06:48:45.504Z,96103.09
2023-02-19T06:49:47.298Z,96106.03
2023-02-19T06:50:49.170Z,96078.03
2023-02-19T06:51:51.041Z,96114.41
2023-02-19T06:52:53.170Z,96110.31
2023-02-19T06:53:55.781Z,96113.34
2023-02-19T06:54:57.841Z,96120.00
2023-02-19T06:56:02.375Z,96089.84
2023-02-19T06:57:04.170Z,96043.19
2023-02-19T06:58:07.088Z,96093.13
2023-02-19T06:59:13.125Z,96095.78
2023-02-19T07:00:15.287Z,96084.91
2023-02-19T07:01:17.269Z,96127.84
2023-02-19T07:02:18.991Z,96110.97
2023-02-19T07:03:21.267Z,96130.50
2023-02-19T07:04:23.015Z,96018.88
2023-02-19T07:05:24.747Z,96104.03
2023-02-19T07:06:27.467Z,96122.41
2023-02-19T07:07:29.378Z,96115.28
2023-02-19T07:08:31.291Z,96114.06
2023-02-19T07:09:33.053Z,96000.19
2023-02-19T07:10:34.973Z,96116.75
2023-02-19T07:11:39.623Z,96119.41
2023-02-19T07:12:41.342Z,95938.28
2023-02-19T07:13:43.066Z,96104.19
2023-02-19T07:14:44.775Z,96125.63
2023-02-19T07:15:46.474Z,96096.31
2023-02-19T07:16:48.737Z,96115.72
2023-02-19T07:17:50.587Z,96110.28
2023-02-19T07:18:53.505Z,96087.91
2023-02-19T07:19:55.384Z,96098.94
2023-02-19T07:21:17.508Z,96099.22
2023-02-19T07:22:19.370Z,96077.78
2023-02-19T07:23:21.598Z,96070.66
2023-02-19T07:24:23.257Z,96082.09
2023-02-19T07:25:24.950Z,96086.06
2023-02-19T07:26:26.703Z,96002.28
2023-02-19T07:27:28.391Z,96059.66
2023-02-19T07:28:30.115Z,96082.91
2023-02-19T07:29:31.961Z,96079.75
2023-02-19T07:30:34.513Z,96085.31
2023-02-19T07:31:36.550Z,96069.78
2023-02-19T07:32:41.542Z,96085.75
2023-02-19T07:33:47.447Z,96092.22
2023-02-19T07:34:49.179Z,96086.44
2023-02-19T07:35:51.490Z,96101.25
2023-02-19T07:36:53.374Z,96082.78
2023-02-19T07:37:55.180Z,96047.16
2023-02-19T07:38:58.404Z,96064.91
2023-02-19T07:40:00.283Z,96002.19
2023-02-19T07:41:03.969Z,95973.38
2023-02-19T07:42:05.714Z,96067.94
2023-02-19T07:43:07.448Z,95990.03
2023-02-19T07:44:09.124Z,96085.00
2023-02-19T07:45:10.991Z,96091.50
2023-02-19T07:46:14.484Z,96080.94
2023-02-19T07:47:16.249Z,96070.66
2023-02-19T07:48:18.801Z,96071.34
2023-02-19T07:49:20.670Z,96047.81
2023-02-19T07:50:22.707Z,96074.44
2023-02-19T07:51:24.402Z,96071.41
2023-02-19T07:52:26.296Z,95934.91
2023-02-19T07:53:28.930Z,96081.94
2023-02-19T07:54:30.598Z,96079.50
2023-02-19T07:55:34.258Z,96093.66
2023-02-19T07:56:36.153Z,96079.22
2023-02-19T07:57:37.998Z,96091.03
2023-02-19T07:58:40.302Z,96078.25
2023-02-19T07:59:42.109Z,96105.31
2023-02-19T08:00:44.607Z,96095.78
2023-02-19T08:01:46.333Z,96070.19
2023-02-19T08:02:47.975Z,96095.22
2023-02-19T08:03:50.560Z,95986.09
2023-02-19T08:04:52.363Z,96068.97
2023-02-19T08:05:54.167Z,96099.31
2023-02-19T08:06:55.832Z,95980.44
2023-02-19T08:07:59.024Z,96094.69
2023-02-19T08:09:00.663Z,96091.59
2023-02-19T08:10:03.955Z,95966.88
2023-02-19T08:11:07.159Z,96089.47
2023-02-19T08:12:11.508Z,96097.16
2023-02-19T08:13:16.030Z,96094.84
2023-02-19T08:14:17.741Z,96064.22
2023-02-19T08:15:21.564Z,95954.09
2023-02-19T08:16:40.642Z,96063.94
2023-02-19T08:17:44.074Z,96080.63
2023-02-19T08:18:47.148Z,95980.22
2023-02-19T08:19:48.808Z,96018.16
2023-02-19T08:20:50.648Z,96121.66
2023-02-19T08:21:52.545Z,95972.91
2023-02-19T08:22:54.511Z,96077.34
2023-02-19T08:23:56.252Z,95937.63
2023-02-19T08:24:57.980Z,96028.47
2023-02-19T08:26:01.414Z,96085.28
2023-02-19T08:27:03.148Z,96057.75
2023-02-19T08:28:05.476Z,96023.78
2023-02-19T08:29:07.221Z,96080.75
2023-02-19T08:30:09.306Z,96064.38
2023-02-19T08:31:12.812Z,96065.38
2023-02-19T08:32:14.819Z,96015.41
2023-02-19T08:33:20.306Z,96060.19
2023-02-19T08:34:22.040Z,96088.97
2023-02-19T08:35:23.914Z,95976.34
2023-02-19T08:36:25.614Z,96040.84
2023-02-19T08:37:27.671Z,96077.66
2023-02-19T08:38:29.371Z,96064.38
2023-02-19T08:39:32.305Z,96060.44
2023-02-19T08:40:34.130Z,96056.84
2023-02-19T08:41:35.929Z,95936.06
2023-02-19T08:42:37.818Z,96052.63
2023-02-19T08:43:43.226Z,95991.28
2023-02-19T08:44:44.876Z,96074.06
2023-02-19T08:45:46.735Z,96065.50
2023-02-19T08:46:48.595Z,96070.34
2023-02-19T08:47:50.321Z,96061.22
2023-02-19T08:48:52.180Z,95944.50
2023-02-19T08:49:54.105Z,96042.72
2023-02-19T08:50:58.351Z,96040.72
2023-02-19T08:52:00.248Z,96062.56
2023-02-19T08:53:03.510Z,96030.97
2023-02-19T08:54:05.634Z,96037.41
2023-02-19T08:55:07.651Z,96059.22
2023-02-19T08:56:12.772Z,96023.38
2023-02-19T08:57:14.483Z,96069.19
2023-02-19T08:58:16.162Z,96060.19
2023-02-19T08:59:17.862Z,96057.09
2023-02-19T09:00:19.875Z,96028.38
2023-02-19T09:01:21.622Z,96077.69
2023-02-19T09:02:24.878Z,96035.50
2023-02-19T09:03:26.577Z,96049.22
2023-02-19T09:04:28.306Z,96027.06
2023-02-19T09:05:30.097Z,96017.38
2023-02-19T09:06:31.920Z,96010.41
2023-02-19T09:07:33.798Z,95940.03
2023-02-19T09:08:35.505Z,96035.06
2023-02-19T09:09:37.876Z,96029.41
2023-02-19T09:10:39.751Z,96032.25
2023-02-19T09:11:41.608Z,96015.56
2023-02-19T09:12:43.362Z,96015.31
2023-02-19T09:13:45.047Z,96016.31
2023-02-19T09:14:46.919Z,96008.38
2023-02-19T09:15:48.639Z,96016.84
2023-02-19T09:16:50.344Z,95995.28
2023-02-19T09:17:52.774Z,95981.41
2023-02-19T09:18:54.535Z,96007.03
2023-02-19T09:19:56.212Z,95994.50
2023-02-19T09:21:04.083Z,95909.19
2023-02-19T09:22:06.217Z,96030.69
2023-02-19T09:23:08.162Z,96019.41
2023-02-19T09:24:10.281Z,96030.97
2023-02-19T09:25:12.083Z,95996.56
2023-02-19T09:26:13.763Z,96000.66
2023-02-19T09:27:19.981Z,95867.41
2023-02-19T09:28:21.598Z,96007.28
2023-02-19T09:29:28.056Z,96022.44
2023-02-19T09:30:29.842Z,96024.75
2023-02-19T09:31:31.636Z,96021.13
2023-02-19T09:32:33.671Z,95860.41
2023-02-19T09:33:35.355Z,96007.41
2023-02-19T09:34:38.006Z,96004.41
2023-02-19T09:35:40.492Z,96004.84
2023-02-19T09:36:42.320Z,95969.91
2023-02-19T09:37:44.276Z,95964.72
2023-02-19T09:38:46.166Z,96011.81
2023-02-19T09:39:47.880Z,95969.53
2023-02-19T09:40:49.636Z,96010.84
2023-02-19T09:41:59.626Z,96014.88
2023-02-19T09:43:02.446Z,95966.38
2023-02-19T09:44:07.244Z,96000.31
2023-02-19T09:45:19.173Z,95959.81
2023-02-19T09:46:27.268Z,96014.63
2023-02-19T09:47:31.670Z,96014.16
2023-02-19T09:48:33.394Z,96002.78
2023-02-19T09:49:41.997Z,96011.63
2023-02-19T09:50:48.008Z,96012.03
2023-02-19T09:51:56.477Z,96013.47
2023-02-19T09:53:02.967Z,96013.31
2023-02-19T09:54:08.180Z,96001.78
2023-02-19T09:55:37.315Z,95989.69
2023-02-19T09:56:39.112Z,95989.19
2023-02-19T09:57:41.637Z,95974.72
2023-02-19T09:58:54.400Z,95987.06
2023-02-19T10:00:23.976Z,95950.53
2023-02-19T10:01:32.463Z,95985.47
2023-02-19T10:02:34.372Z,95976.81
2023-02-19T10:03:39.258Z,95973.69
2023-02-19T10:04:43.417Z,95976.88
2023-02-19T10:05:45.398Z,95950.66
2023-02-19T10:06:49.062Z,95966.59
2023-02-19T10:07:53.608Z,95840.19
2023-02-19T10:09:24.743Z,95963.41
2023-02-19T10:10:33.415Z,95931.69
2023-02-19T10:11:35.170Z,95965.75
2023-02-19T10:12:36.963Z,95960.16
2023-02-19T10:13:49.362Z,95853.34
2023-02-19T10:14:56.616Z,95947.69
2023-02-19T10:16:00.987Z,95938.28
2023-02-19T10:17:05.602Z,95918.31
2023-02-19T10:18:08.871Z,95920.31
2023-02-19T10:19:13.607Z,95948.78
2023-02-19T10:20:17.650Z,95946.94
2023-02-19T10:21:26.073Z,95899.44
2023-02-19T10:22:27.797Z,95888.41
2023-02-19T10:23:30.343Z,95930.59
2023-02-19T10:24:32.922Z,95931.34
2023-02-19T10:25:43.127Z,95921.72
2023-02-19T10:26:45.339Z,95890.53
2023-02-19T10:27:47.265Z,95908.88
2023-02-19T10:28:49.009Z,95917.63
2023-02-19T10:29:54.632Z,95918.91
2023-02-19T10:30:58.897Z,95905.25
2023-02-19T10:32:21.809Z,95914.00
2023-02-19T10:33:24.335Z,95792.78
2023-02-19T10:34:26.044Z,95923.28
2023-02-19T10:35:28.899Z,95895.34
2023-02-19T10:36:38.597Z,95785.41
2023-02-19T10:37:51.086Z,95898.09
2023-02-19T10:38:53.584Z,95906.09
2023-02-19T10:39:55.761Z,95878.88
2023-02-19T10:41:19.046Z,95887.19
2023-02-19T10:42:23.173Z,95805.41
2023-02-19T10:43:30.851Z,95852.28
2023-02-19T10:44:42.314Z,95879.00
2023-02-19T10:45:48.576Z,95759.19
2023-02-19T10:46:53.642Z,95866.69
2023-02-19T10:47:56.732Z,95875.53
2023-02-19T10:49:01.454Z,95863.13
2023-02-19T10:50:04.786Z,95728.59
2023-02-19T10:51:11.184Z,95868.94
2023-02-19T10:52:32.082Z,95892.81
2023-02-19T10:53:44.460Z,95844.56
2023-02-19T10:54:51.381Z,95864.78
2023-02-19T10:56:22.639Z,95855.22
2023-02-19T10:57:30.234Z,95840.38
2023-02-19T10:58:32.056Z,95855.91
2023-02-19T10:59:33.802Z,95856.41
2023-02-19T11:00:35.606Z,95844.75
2023-02-19T11:01:53.033Z,95851.03
2023-02-19T11:03:23.971Z,95850.81
2023-02-19T11:04:30.835Z,95856.97
2023-02-19T11:05:32.653Z,95832.47
2023-02-19T11:06:35.142Z,95717.88
2023-02-19T11:07:38.578Z,95808.19
2023-02-19T11:08:48.716Z,95808.94
2023-02-19T11:09:50.948Z,95812.44
2023-02-19T11:10:52.662Z,95806.97
2023-02-19T11:11:56.816Z,95802.94
2023-02-19T11:13:02.575Z,95727.78
2023-02-19T11:14:20.239Z,95850.97
2023-02-19T11:15:23.726Z,95841.28
2023-02-19T11:16:42.163Z,95823.59
2023-02-19T11:17:44.109Z,95835.44
2023-02-19T11:18:56.919Z,95824.59
2023-02-19T11:20:04.518Z,95823.50
2023-02-19T11:21:07.942Z,95816.81
2023-02-19T11:22:34.707Z,95766.72
2023-02-19T11:23:44.656Z,95811.16
2023-02-19T11:24:55.454Z,95693.19
2023-02-19T11:26:03.105Z,95792.63
2023-02-19T11:27:16.261Z,95798.31
2023-02-19T11:28:32.015Z,95785.19
2023-02-19T11:29:34.695Z,95799.91
2023-02-19T11:30:40.708Z,95789.78
2023-02-19T11:31:42.738Z,95776.22
2023-02-19T11:32:44.477Z,95807.84
2023-02-19T11:33:53.021Z,95762.00
2023-02-19T11:35:17.948Z,95780.41
2023-02-19T11:36:36.082Z,95804.88
2023-02-19T11:37:54.938Z,95768.41
2023-02-19T11:38:59.031Z,95778.63
2023-02-19T11:40:00.944Z,95724.34
2023-02-19T11:41:34.870Z,95750.53
2023-02-19T11:42:51.610Z,95768.53
2023-02-19T11:44:32.268Z,95773.75
2023-02-19T11:45:56.901Z,95756.84
2023-02-19T11:47:20.761Z,95716.44
2023-02-19T11:48:39.245Z,95764.50
2023-02-19T11:49:56.349Z,95758.19
2023-02-19T11:51:24.334Z,95740.56
2023-02-19T11:52:44.504Z,95752.00
2023-02-19T11:53:53.498Z,95750.72
2023-02-19T11:55:25.781Z,95731.34
2023-02-19T11:56:36.582Z,95741.59
2023-02-19T11:57:40.426Z,95750.34
2023-02-19T11:58:50.814Z,95699.66
2023-02-19T11:59:59.810Z,95744.09
2023-02-19T12:01:40.162Z,95721.94
2023-02-19T12:02:55.233Z,95730.81
2023-02-19T12:04:15.932Z,95730.25
2023-02-19T12:05:34.630Z,95628.31
2023-02-19T12:06:45.833Z,95705.81
2023-02-19T12:07:53.275Z,95735.69
2023-02-19T12:09:31.155Z,95714.16
2023-02-19T12:10:52.791Z,95714.53
2023-02-19T12:12:22.468Z,95696.41
2023-02-19T12:13:46.908Z,95724.69
2023-02-19T12:14:57.359Z,95685.88
2023-02-19T12:16:31.380Z,95704.69
2023-02-19T12:18:15.263Z,95703.31
2023-02-19T12:19:39.717Z,95676.75
2023-02-19T12:20:50.260Z,95683.50
2023-02-19T12:22:23.372Z,95692.03
2023-02-19T12:24:02.346Z,95686.28
2023-02-19T12:25:32.206Z,95689.28
2023-02-19T12:27:24.405Z,95698.97
2023-02-19T12:28:44.954Z,95683.13
2023-02-19T12:29:49.285Z,95591.28
2023-02-19T12:30:57.871Z,95658.06
2023-02-19T12:32:24.137Z,95590.56
2023-02-19T12:33:25.862Z,95681.50
2023-02-19T12:34:49.348Z,95694.78
2023-02-19T12:36:05.888Z,95671.94
2023-02-19T12:37:38.746Z,95659.09
2023-02-19T12:38:47.820Z,95666.47
2023-02-19T12:40:12.659Z,95674.53
2023-02-19T12:41:35.828Z,95667.22
2023-02-19T12:43:11.018Z,95647.44
2023-02-19T12:44:25.664Z,95637.72
2023-02-19T12:45:37.033Z,95640.13
2023-02-19T12:46:44.786Z,95658.97
2023-02-19T12:48:01.676Z,95636.09
2023-02-19T12:49:13.642Z,95632.44
2023-02-19T12:50:21.594Z,95587.00
2023-02-19T12:51:32.494Z,95631.31
2023-02-19T12:52:40.890Z,95605.56
2023-02-19T12:53:51.993Z,95617.63
2023-02-19T12:54:58.051Z,95622.25
2023-02-19T12:56:05.667Z,95597.16
2023-02-19T12:57:27.031Z,95597.16
2023-02-19T12:58:35.481Z,95566.78
2023-02-19T13:00:03.452Z,95584.13